sensor_id;sensor_type;location;lat;lon;timestamp;P1;durP1;ratioP1;P2;durP2;ratioP2
77010;SDS011;65945;53.148;17.956;2022-12-29T00:00:13;19.80;;;7.20;;
77010;SDS011;65945;53.148;17.956;2022-12-29T00:03:00;14.10;;;7.10;;
77010;SDS011;65945;53.148;17.956;2022-12-29T00:05:27;13.90;;;6.70;;
77010;SDS011;65945;53.148;17.956;2022-12-29T00:07:54;16.80;;;6.90;;
77010;SDS011;65945;53.148;17.956;2022-12-29T00:10:20;13.70;;;6.10;;
77010;SDS011;65945;53.148;17.956;2022-12-29T00:12:47;14.80;;;6.50;;
77010;SDS011;65945;53.148;17.956;2022-12-29T00:15:32;15.30;;;7.30;;
77010;SDS011;65945;53.148;17.956;2022-12-29T00:18:06;13.70;;;6.70;;
77010;SDS011;65945;53.148;17.956;2022-12-29T00:20:36;12.30;;;6.00;;
77010;SDS011;65945;53.148;17.956;2022-12-29T00:23:22;15.10;;;6.20;;
77010;SDS011;65945;53.148;17.956;2022-12-29T00:26:24;14.90;;;6.50;;
77010;SDS011;65945;53.148;17.956;2022-12-29T00:29:10;12.30;;;5.70;;
77010;SDS011;65945;53.148;17.956;2022-12-29T00:31:55;10.60;;;5.90;;
77010;SDS011;65945;53.148;17.956;2022-12-29T00:34:40;9.70;;;5.30;;
77010;SDS011;65945;53.148;17.956;2022-12-29T00:37:26;11.40;;;6.10;;
77010;SDS011;65945;53.148;17.956;2022-12-29T00:40:13;11.60;;;5.60;;
77010;SDS011;65945;53.148;17.956;2022-12-29T00:43:00;10.40;;;5.80;;
77010;SDS011;65945;53.148;17.956;2022-12-29T00:45:45;16.20;;;6.30;;
77010;SDS011;65945;53.148;17.956;2022-12-29T00:48:12;13.10;;;5.30;;
77010;SDS011;65945;53.148;17.956;2022-12-29T00:50:38;10.70;;;5.80;;
77010;SDS011;65945;53.148;17.956;2022-12-29T00:53:05;11.10;;;5.30;;
77010;SDS011;65945;53.148;17.956;2022-12-29T00:55:35;15.60;;;6.70;;
77010;SDS011;65945;53.148;17.956;2022-12-29T00:58:02;12.60;;;6.50;;
77010;SDS011;65945;53.148;17.956;2022-12-29T01:00:29;10.50;;;5.60;;
77010;SDS011;65945;53.148;17.956;2022-12-29T01:02:56;14.10;;;5.80;;
77010;SDS011;65945;53.148;17.956;2022-12-29T01:05:22;14.00;;;6.60;;
77010;SDS011;65945;53.148;17.956;2022-12-29T01:07:49;11.50;;;6.10;;
77010;SDS011;65945;53.148;17.956;2022-12-29T01:10:15;10.90;;;5.20;;
77010;SDS011;65945;53.148;17.956;2022-12-29T01:12:42;10.40;;;5.30;;
77010;SDS011;65945;53.148;17.956;2022-12-29T01:15:12;11.60;;;5.30;;
77010;SDS011;65945;53.148;17.956;2022-12-29T01:17:41;11.00;;;5.60;;
77010;SDS011;65945;53.148;17.956;2022-12-29T01:20:09;12.20;;;5.70;;
77010;SDS011;65945;53.148;17.956;2022-12-29T01:22:37;10.70;;;5.90;;
77010;SDS011;65945;53.148;17.956;2022-12-29T01:25:04;11.90;;;5.80;;
77010;SDS011;65945;53.148;17.956;2022-12-29T01:27:31;13.30;;;6.20;;
77010;SDS011;65945;53.148;17.956;2022-12-29T01:29:57;11.00;;;5.40;;
77010;SDS011;65945;53.148;17.956;2022-12-29T01:32:24;12.30;;;6.40;;
77010;SDS011;65945;53.148;17.956;2022-12-29T01:34:51;12.90;;;7.20;;
77010;SDS011;65945;53.148;17.956;2022-12-29T01:37:17;11.50;;;6.80;;
77010;SDS011;65945;53.148;17.956;2022-12-29T01:39:44;16.90;;;5.90;;
77010;SDS011;65945;53.148;17.956;2022-12-29T01:42:18;16.80;;;7.90;;
77010;SDS011;65945;53.148;17.956;2022-12-29T01:44:52;16.60;;;9.20;;
77010;SDS011;65945;53.148;17.956;2022-12-29T01:47:26;17.10;;;9.00;;
77010;SDS011;65945;53.148;17.956;2022-12-29T01:50:37;25.20;;;11.50;;
77010;SDS011;65945;53.148;17.956;2022-12-29T01:53:09;18.90;;;9.00;;
77010;SDS011;65945;53.148;17.956;2022-12-29T01:56:04;20.40;;;10.00;;
77010;SDS011;65945;53.148;17.956;2022-12-29T01:58:32;15.30;;;8.40;;
77010;SDS011;65945;53.148;17.956;2022-12-29T02:01:04;13.50;;;6.70;;
77010;SDS011;65945;53.148;17.956;2022-12-29T02:03:31;13.00;;;6.30;;
77010;SDS011;65945;53.148;17.956;2022-12-29T02:06:02;11.40;;;6.00;;
77010;SDS011;65945;53.148;17.956;2022-12-29T02:08:35;10.10;;;5.60;;
77010;SDS011;65945;53.148;17.956;2022-12-29T02:11:04;13.20;;;7.20;;
77010;SDS011;65945;53.148;17.956;2022-12-29T02:13:34;17.90;;;7.80;;
77010;SDS011;65945;53.148;17.956;2022-12-29T02:21:41;19.70;;;9.40;;
77010;SDS011;65945;53.148;17.956;2022-12-29T02:24:16;11.80;;;6.30;;
77010;SDS011;65945;53.148;17.956;2022-12-29T02:27:31;15.00;;;7.00;;
77010;SDS011;65945;53.148;17.956;2022-12-29T02:33:20;36.50;;;13.20;;
77010;SDS011;65945;53.148;17.956;2022-12-29T02:41:32;14.80;;;5.60;;
77010;SDS011;65945;53.148;17.956;2022-12-29T02:44:25;13.00;;;6.30;;
77010;SDS011;65945;53.148;17.956;2022-12-29T02:49:38;15.90;;;7.40;;
77010;SDS011;65945;53.148;17.956;2022-12-29T02:52:15;14.90;;;6.50;;
77010;SDS011;65945;53.148;17.956;2022-12-29T02:54:44;9.60;;;4.90;;
77010;SDS011;65945;53.148;17.956;2022-12-29T02:59:56;11.40;;;5.10;;
77010;SDS011;65945;53.148;17.956;2022-12-29T03:02:48;9.50;;;5.40;;
77010;SDS011;65945;53.148;17.956;2022-12-29T03:08:32;12.30;;;6.10;;
77010;SDS011;65945;53.148;17.956;2022-12-29T03:11:25;10.60;;;5.50;;
77010;SDS011;65945;53.148;17.956;2022-12-29T03:14:26;9.90;;;5.40;;
77010;SDS011;65945;53.148;17.956;2022-12-29T03:17:18;15.20;;;6.90;;
77010;SDS011;65945;53.148;17.956;2022-12-29T03:20:01;9.60;;;5.50;;
77010;SDS011;65945;53.148;17.956;2022-12-29T03:22:36;7.90;;;4.70;;
77010;SDS011;65945;53.148;17.956;2022-12-29T03:25:21;10.40;;;5.20;;
77010;SDS011;65945;53.148;17.956;2022-12-29T03:27:55;9.60;;;4.10;;
77010;SDS011;65945;53.148;17.956;2022-12-29T03:30:30;9.20;;;4.30;;
77010;SDS011;65945;53.148;17.956;2022-12-29T03:33:01;9.70;;;4.40;;
77010;SDS011;65945;53.148;17.956;2022-12-29T03:35:33;10.00;;;4.70;;
77010;SDS011;65945;53.148;17.956;2022-12-29T03:38:08;9.70;;;5.10;;
77010;SDS011;65945;53.148;17.956;2022-12-29T03:40:47;8.70;;;4.30;;
77010;SDS011;65945;53.148;17.956;2022-12-29T03:43:16;8.80;;;4.40;;
77010;SDS011;65945;53.148;17.956;2022-12-29T03:45:44;8.50;;;4.50;;
77010;SDS011;65945;53.148;17.956;2022-12-29T03:48:11;10.50;;;4.20;;
77010;SDS011;65945;53.148;17.956;2022-12-29T03:50:38;9.10;;;4.90;;
77010;SDS011;65945;53.148;17.956;2022-12-29T03:53:05;9.70;;;4.80;;
77010;SDS011;65945;53.148;17.956;2022-12-29T03:55:32;13.40;;;5.20;;
77010;SDS011;65945;53.148;17.956;2022-12-29T03:57:58;8.50;;;4.50;;
77010;SDS011;65945;53.148;17.956;2022-12-29T04:00:44;13.40;;;4.70;;
77010;SDS011;65945;53.148;17.956;2022-12-29T04:03:10;10.60;;;4.70;;
77010;SDS011;65945;53.148;17.956;2022-12-29T04:05:37;12.30;;;4.80;;
77010;SDS011;65945;53.148;17.956;2022-12-29T04:08:04;9.80;;;4.50;;
77010;SDS011;65945;53.148;17.956;2022-12-29T04:10:31;9.70;;;4.70;;
77010;SDS011;65945;53.148;17.956;2022-12-29T04:13:00;9.20;;;4.60;;
77010;SDS011;65945;53.148;17.956;2022-12-29T04:15:26;9.50;;;4.70;;
77010;SDS011;65945;53.148;17.956;2022-12-29T04:17:53;12.00;;;4.80;;
77010;SDS011;65945;53.148;17.956;2022-12-29T04:20:20;10.80;;;5.10;;
77010;SDS011;65945;53.148;17.956;2022-12-29T04:23:06;11.90;;;4.80;;
77010;SDS011;65945;53.148;17.956;2022-12-29T04:25:35;10.40;;;4.50;;
77010;SDS011;65945;53.148;17.956;2022-12-29T04:28:02;11.20;;;4.90;;
77010;SDS011;65945;53.148;17.956;2022-12-29T04:30:44;10.10;;;5.40;;
77010;SDS011;65945;53.148;17.956;2022-12-29T04:33:17;14.10;;;6.00;;
77010;SDS011;65945;53.148;17.956;2022-12-29T04:35:44;15.80;;;7.10;;
77010;SDS011;65945;53.148;17.956;2022-12-29T04:38:11;20.30;;;8.10;;
77010;SDS011;65945;53.148;17.956;2022-12-29T04:40:39;18.60;;;6.50;;
77010;SDS011;65945;53.148;17.956;2022-12-29T04:43:09;11.30;;;5.40;;
77010;SDS011;65945;53.148;17.956;2022-12-29T04:45:51;12.40;;;5.20;;
77010;SDS011;65945;53.148;17.956;2022-12-29T04:48:29;8.10;;;4.40;;
77010;SDS011;65945;53.148;17.956;2022-12-29T04:51:27;8.90;;;4.00;;
77010;SDS011;65945;53.148;17.956;2022-12-29T04:53:54;8.40;;;4.20;;
77010;SDS011;65945;53.148;17.956;2022-12-29T04:56:21;6.10;;;3.60;;
77010;SDS011;65945;53.148;17.956;2022-12-29T04:58:47;7.30;;;3.50;;
77010;SDS011;65945;53.148;17.956;2022-12-29T05:01:14;8.10;;;3.70;;
77010;SDS011;65945;53.148;17.956;2022-12-29T05:03:41;6.90;;;3.80;;
77010;SDS011;65945;53.148;17.956;2022-12-29T05:06:08;7.20;;;3.90;;
77010;SDS011;65945;53.148;17.956;2022-12-29T05:08:35;10.90;;;3.90;;
77010;SDS011;65945;53.148;17.956;2022-12-29T05:11:02;6.90;;;3.50;;
77010;SDS011;65945;53.148;17.956;2022-12-29T05:13:29;6.20;;;3.30;;
77010;SDS011;65945;53.148;17.956;2022-12-29T05:15:55;9.70;;;4.40;;
77010;SDS011;65945;53.148;17.956;2022-12-29T05:18:23;7.70;;;3.80;;
77010;SDS011;65945;53.148;17.956;2022-12-29T05:20:50;12.80;;;4.40;;
77010;SDS011;65945;53.148;17.956;2022-12-29T05:23:18;11.80;;;5.70;;
77010;SDS011;65945;53.148;17.956;2022-12-29T05:25:49;8.80;;;4.60;;
77010;SDS011;65945;53.148;17.956;2022-12-29T05:28:24;11.60;;;5.50;;
77010;SDS011;65945;53.148;17.956;2022-12-29T05:31:09;10.30;;;4.50;;
77010;SDS011;65945;53.148;17.956;2022-12-29T05:33:36;6.80;;;3.60;;
77010;SDS011;65945;53.148;17.956;2022-12-29T05:36:03;8.40;;;4.10;;
77010;SDS011;65945;53.148;17.956;2022-12-29T05:38:31;8.90;;;3.80;;
77010;SDS011;65945;53.148;17.956;2022-12-29T05:40:57;12.80;;;4.80;;
77010;SDS011;65945;53.148;17.956;2022-12-29T05:43:47;15.50;;;6.00;;
77010;SDS011;65945;53.148;17.956;2022-12-29T05:46:34;12.50;;;4.00;;
77010;SDS011;65945;53.148;17.956;2022-12-29T05:49:27;9.20;;;4.00;;
77010;SDS011;65945;53.148;17.956;2022-12-29T05:52:07;11.90;;;4.40;;
77010;SDS011;65945;53.148;17.956;2022-12-29T05:54:34;20.30;;;6.40;;
77010;SDS011;65945;53.148;17.956;2022-12-29T05:57:02;23.60;;;6.50;;
77010;SDS011;65945;53.148;17.956;2022-12-29T05:59:30;13.80;;;4.40;;
77010;SDS011;65945;53.148;17.956;2022-12-29T06:01:57;11.90;;;4.00;;
77010;SDS011;65945;53.148;17.956;2022-12-29T06:04:24;8.80;;;3.30;;
77010;SDS011;65945;53.148;17.956;2022-12-29T06:06:50;8.50;;;3.50;;
77010;SDS011;65945;53.148;17.956;2022-12-29T06:09:26;7.90;;;3.00;;
77010;SDS011;65945;53.148;17.956;2022-12-29T06:11:53;9.80;;;3.60;;
77010;SDS011;65945;53.148;17.956;2022-12-29T06:14:20;12.90;;;4.20;;
77010;SDS011;65945;53.148;17.956;2022-12-29T06:16:47;15.70;;;4.20;;
77010;SDS011;65945;53.148;17.956;2022-12-29T06:19:14;10.30;;;3.40;;
77010;SDS011;65945;53.148;17.956;2022-12-29T06:21:40;8.40;;;2.90;;
77010;SDS011;65945;53.148;17.956;2022-12-29T06:24:07;7.00;;;3.00;;
77010;SDS011;65945;53.148;17.956;2022-12-29T06:26:37;8.30;;;3.20;;
77010;SDS011;65945;53.148;17.956;2022-12-29T06:29:03;8.90;;;3.30;;
77010;SDS011;65945;53.148;17.956;2022-12-29T06:31:30;5.90;;;2.70;;
77010;SDS011;65945;53.148;17.956;2022-12-29T06:33:57;11.60;;;3.50;;
77010;SDS011;65945;53.148;17.956;2022-12-29T06:36:24;13.20;;;4.90;;
77010;SDS011;65945;53.148;17.956;2022-12-29T06:38:50;9.50;;;3.50;;
77010;SDS011;65945;53.148;17.956;2022-12-29T06:41:19;8.20;;;3.60;;
77010;SDS011;65945;53.148;17.956;2022-12-29T06:44:10;8.20;;;3.10;;
77010;SDS011;65945;53.148;17.956;2022-12-29T06:46:49;9.50;;;3.70;;
77010;SDS011;65945;53.148;17.956;2022-12-29T06:49:16;8.70;;;4.20;;
77010;SDS011;65945;53.148;17.956;2022-12-29T06:51:43;7.60;;;3.50;;
77010;SDS011;65945;53.148;17.956;2022-12-29T06:54:10;9.10;;;3.70;;
77010;SDS011;65945;53.148;17.956;2022-12-29T06:56:37;6.70;;;3.20;;
77010;SDS011;65945;53.148;17.956;2022-12-29T06:59:04;8.40;;;3.20;;
77010;SDS011;65945;53.148;17.956;2022-12-29T07:01:31;5.90;;;3.40;;
77010;SDS011;65945;53.148;17.956;2022-12-29T07:03:58;14.40;;;3.60;;
77010;SDS011;65945;53.148;17.956;2022-12-29T07:06:24;7.70;;;3.20;;
77010;SDS011;65945;53.148;17.956;2022-12-29T07:08:51;5.70;;;3.60;;
77010;SDS011;65945;53.148;17.956;2022-12-29T07:11:21;9.00;;;3.70;;
77010;SDS011;65945;53.148;17.956;2022-12-29T07:13:48;9.50;;;4.20;;
77010;SDS011;65945;53.148;17.956;2022-12-29T07:16:14;6.70;;;3.00;;
77010;SDS011;65945;53.148;17.956;2022-12-29T07:18:41;6.60;;;2.70;;
77010;SDS011;65945;53.148;17.956;2022-12-29T07:21:07;8.00;;;3.60;;
77010;SDS011;65945;53.148;17.956;2022-12-29T07:23:34;9.20;;;3.30;;
77010;SDS011;65945;53.148;17.956;2022-12-29T07:26:05;15.80;;;5.40;;
77010;SDS011;65945;53.148;17.956;2022-12-29T07:28:36;6.70;;;3.30;;
77010;SDS011;65945;53.148;17.956;2022-12-29T07:31:05;6.40;;;3.10;;
77010;SDS011;65945;53.148;17.956;2022-12-29T07:33:32;12.60;;;6.50;;
77010;SDS011;65945;53.148;17.956;2022-12-29T07:35:59;9.30;;;3.70;;
77010;SDS011;65945;53.148;17.956;2022-12-29T07:38:26;12.00;;;5.60;;
77010;SDS011;65945;53.148;17.956;2022-12-29T07:40:56;11.90;;;5.10;;
77010;SDS011;65945;53.148;17.956;2022-12-29T07:43:23;11.20;;;3.90;;
77010;SDS011;65945;53.148;17.956;2022-12-29T07:46:12;11.40;;;4.20;;
77010;SDS011;65945;53.148;17.956;2022-12-29T07:48:39;7.70;;;3.70;;
77010;SDS011;65945;53.148;17.956;2022-12-29T07:51:06;12.70;;;4.90;;
77010;SDS011;65945;53.148;17.956;2022-12-29T07:53:32;10.20;;;3.60;;
77010;SDS011;65945;53.148;17.956;2022-12-29T07:55:59;9.20;;;3.80;;
77010;SDS011;65945;53.148;17.956;2022-12-29T07:58:26;10.10;;;3.80;;
77010;SDS011;65945;53.148;17.956;2022-12-29T08:00:55;10.30;;;4.10;;
77010;SDS011;65945;53.148;17.956;2022-12-29T08:03:22;10.40;;;3.90;;
77010;SDS011;65945;53.148;17.956;2022-12-29T08:05:51;10.10;;;4.80;;
77010;SDS011;65945;53.148;17.956;2022-12-29T08:08:18;8.80;;;4.50;;
77010;SDS011;65945;53.148;17.956;2022-12-29T08:10:46;10.10;;;4.20;;
77010;SDS011;65945;53.148;17.956;2022-12-29T08:13:12;8.30;;;3.70;;
77010;SDS011;65945;53.148;17.956;2022-12-29T08:15:39;8.40;;;3.90;;
77010;SDS011;65945;53.148;17.956;2022-12-29T08:18:06;7.00;;;3.30;;
77010;SDS011;65945;53.148;17.956;2022-12-29T08:20:32;7.80;;;3.60;;
77010;SDS011;65945;53.148;17.956;2022-12-29T08:22:59;8.90;;;3.90;;
77010;SDS011;65945;53.148;17.956;2022-12-29T08:25:26;6.50;;;3.20;;
77010;SDS011;65945;53.148;17.956;2022-12-29T08:27:52;7.00;;;3.10;;
77010;SDS011;65945;53.148;17.956;2022-12-29T08:30:19;7.60;;;4.10;;
77010;SDS011;65945;53.148;17.956;2022-12-29T08:32:45;9.90;;;4.10;;
77010;SDS011;65945;53.148;17.956;2022-12-29T08:35:12;8.30;;;3.60;;
77010;SDS011;65945;53.148;17.956;2022-12-29T08:37:39;10.10;;;3.80;;
77010;SDS011;65945;53.148;17.956;2022-12-29T08:40:05;7.80;;;3.40;;
77010;SDS011;65945;53.148;17.956;2022-12-29T08:42:33;7.70;;;3.50;;
77010;SDS011;65945;53.148;17.956;2022-12-29T08:45:00;7.90;;;3.70;;
77010;SDS011;65945;53.148;17.956;2022-12-29T08:47:27;5.60;;;3.00;;
77010;SDS011;65945;53.148;17.956;2022-12-29T08:49:54;5.80;;;3.20;;
77010;SDS011;65945;53.148;17.956;2022-12-29T08:52:20;8.00;;;3.00;;
77010;SDS011;65945;53.148;17.956;2022-12-29T08:54:47;8.90;;;3.60;;
77010;SDS011;65945;53.148;17.956;2022-12-29T08:57:14;12.90;;;5.00;;
77010;SDS011;65945;53.148;17.956;2022-12-29T09:00:06;8.30;;;3.90;;
77010;SDS011;65945;53.148;17.956;2022-12-29T09:02:33;10.80;;;4.10;;
77010;SDS011;65945;53.148;17.956;2022-12-29T09:05:00;8.90;;;3.50;;
77010;SDS011;65945;53.148;17.956;2022-12-29T09:07:27;9.20;;;3.30;;
77010;SDS011;65945;53.148;17.956;2022-12-29T09:09:53;8.10;;;3.80;;
77010;SDS011;65945;53.148;17.956;2022-12-29T09:12:20;8.10;;;3.50;;
77010;SDS011;65945;53.148;17.956;2022-12-29T09:14:46;7.00;;;3.40;;
77010;SDS011;65945;53.148;17.956;2022-12-29T09:17:13;7.10;;;3.30;;
77010;SDS011;65945;53.148;17.956;2022-12-29T09:19:59;5.20;;;2.70;;
77010;SDS011;65945;53.148;17.956;2022-12-29T09:22:25;8.80;;;3.10;;
77010;SDS011;65945;53.148;17.956;2022-12-29T09:24:52;5.90;;;2.90;;
77010;SDS011;65945;53.148;17.956;2022-12-29T09:27:18;6.50;;;3.20;;
77010;SDS011;65945;53.148;17.956;2022-12-29T09:29:45;8.30;;;3.40;;
77010;SDS011;65945;53.148;17.956;2022-12-29T09:32:12;9.00;;;3.90;;
77010;SDS011;65945;53.148;17.956;2022-12-29T09:34:38;9.90;;;4.50;;
77010;SDS011;65945;53.148;17.956;2022-12-29T09:37:05;10.80;;;4.20;;
77010;SDS011;65945;53.148;17.956;2022-12-29T09:39:31;11.00;;;5.10;;
77010;SDS011;65945;53.148;17.956;2022-12-29T09:42:00;9.40;;;3.70;;
77010;SDS011;65945;53.148;17.956;2022-12-29T09:44:55;13.10;;;4.60;;
77010;SDS011;65945;53.148;17.956;2022-12-29T09:47:35;8.10;;;3.10;;
77010;SDS011;65945;53.148;17.956;2022-12-29T09:50:08;13.80;;;4.60;;
77010;SDS011;65945;53.148;17.956;2022-12-29T09:55:48;20.10;;;5.30;;
77010;SDS011;65945;53.148;17.956;2022-12-29T09:58:26;25.00;;;7.40;;
77010;SDS011;65945;53.148;17.956;2022-12-29T10:01:07;27.60;;;7.80;;
77010;SDS011;65945;53.148;17.956;2022-12-29T10:03:50;12.90;;;3.70;;
77010;SDS011;65945;53.148;17.956;2022-12-29T10:09:17;9.90;;;3.50;;
77010;SDS011;65945;53.148;17.956;2022-12-29T10:15:01;8.60;;;4.10;;
77010;SDS011;65945;53.148;17.956;2022-12-29T10:17:53;9.40;;;4.00;;
77010;SDS011;65945;53.148;17.956;2022-12-29T10:23:52;7.70;;;3.10;;
77010;SDS011;65945;53.148;17.956;2022-12-29T10:26:20;10.30;;;4.10;;
77010;SDS011;65945;53.148;17.956;2022-12-29T10:31:34;9.00;;;3.30;;
77010;SDS011;65945;53.148;17.956;2022-12-29T10:34:13;7.50;;;3.80;;
77010;SDS011;65945;53.148;17.956;2022-12-29T10:36:46;11.10;;;4.10;;
77010;SDS011;65945;53.148;17.956;2022-12-29T10:41:46;14.00;;;4.90;;
77010;SDS011;65945;53.148;17.956;2022-12-29T10:44:17;8.50;;;4.00;;
77010;SDS011;65945;53.148;17.956;2022-12-29T10:46:54;10.80;;;4.60;;
77010;SDS011;65945;53.148;17.956;2022-12-29T10:49:24;11.30;;;5.10;;
77010;SDS011;65945;53.148;17.956;2022-12-29T10:51:55;10.30;;;4.10;;
77010;SDS011;65945;53.148;17.956;2022-12-29T10:54:29;11.90;;;4.90;;
77010;SDS011;65945;53.148;17.956;2022-12-29T10:57:13;11.50;;;4.30;;
77010;SDS011;65945;53.148;17.956;2022-12-29T10:59:42;13.20;;;5.10;;
77010;SDS011;65945;53.148;17.956;2022-12-29T11:07:08;18.70;;;8.10;;
77010;SDS011;65945;53.148;17.956;2022-12-29T11:09:37;9.30;;;4.30;;
77010;SDS011;65945;53.148;17.956;2022-12-29T11:15:12;11.90;;;4.80;;
77010;SDS011;65945;53.148;17.956;2022-12-29T11:17:49;13.20;;;5.30;;
77010;SDS011;65945;53.148;17.956;2022-12-29T11:20:27;8.90;;;4.30;;
77010;SDS011;65945;53.148;17.956;2022-12-29T11:23:05;18.40;;;6.80;;
77010;SDS011;65945;53.148;17.956;2022-12-29T11:28:41;13.70;;;5.70;;
77010;SDS011;65945;53.148;17.956;2022-12-29T11:31:10;9.10;;;4.20;;
77010;SDS011;65945;53.148;17.956;2022-12-29T11:33:41;14.20;;;6.30;;
77010;SDS011;65945;53.148;17.956;2022-12-29T11:38:47;11.20;;;4.60;;
77010;SDS011;65945;53.148;17.956;2022-12-29T11:41:26;12.90;;;4.00;;
77010;SDS011;65945;53.148;17.956;2022-12-29T11:43:57;10.20;;;4.50;;
77010;SDS011;65945;53.148;17.956;2022-12-29T11:46:28;10.80;;;4.80;;
77010;SDS011;65945;53.148;17.956;2022-12-29T11:48:58;8.50;;;3.90;;
77010;SDS011;65945;53.148;17.956;2022-12-29T11:51:28;47.30;;;14.60;;
77010;SDS011;65945;53.148;17.956;2022-12-29T11:53:57;33.90;;;12.20;;
77010;SDS011;65945;53.148;17.956;2022-12-29T11:56:41;12.60;;;4.00;;
77010;SDS011;65945;53.148;17.956;2022-12-29T12:01:56;8.80;;;3.20;;
77010;SDS011;65945;53.148;17.956;2022-12-29T12:04:28;11.30;;;4.40;;
77010;SDS011;65945;53.148;17.956;2022-12-29T12:07:07;9.50;;;4.00;;
77010;SDS011;65945;53.148;17.956;2022-12-29T12:09:44;8.60;;;4.60;;
77010;SDS011;65945;53.148;17.956;2022-12-29T12:12:24;10.50;;;4.90;;
77010;SDS011;65945;53.148;17.956;2022-12-29T12:14:58;13.90;;;6.30;;
77010;SDS011;65945;53.148;17.956;2022-12-29T12:17:50;18.10;;;7.30;;
77010;SDS011;65945;53.148;17.956;2022-12-29T12:23:07;10.30;;;5.10;;
77010;SDS011;65945;53.148;17.956;2022-12-29T12:25:51;11.30;;;4.20;;
77010;SDS011;65945;53.148;17.956;2022-12-29T12:29:08;9.50;;;4.20;;
77010;SDS011;65945;53.148;17.956;2022-12-29T12:37:02;12.00;;;4.60;;
77010;SDS011;65945;53.148;17.956;2022-12-29T12:39:49;17.10;;;6.70;;
77010;SDS011;65945;53.148;17.956;2022-12-29T12:42:56;11.70;;;5.20;;
77010;SDS011;65945;53.148;17.956;2022-12-29T12:57:01;10.60;;;4.20;;
77010;SDS011;65945;53.148;17.956;2022-12-29T13:10:19;7.50;;;4.00;;
77010;SDS011;65945;53.148;17.956;2022-12-29T13:19:17;8.50;;;4.30;;
77010;SDS011;65945;53.148;17.956;2022-12-29T13:26:44;8.30;;;3.60;;
77010;SDS011;65945;53.148;17.956;2022-12-29T13:32:13;9.00;;;4.30;;
77010;SDS011;65945;53.148;17.956;2022-12-29T13:34:48;9.40;;;4.30;;
77010;SDS011;65945;53.148;17.956;2022-12-29T13:37:18;8.70;;;4.20;;
77010;SDS011;65945;53.148;17.956;2022-12-29T13:39:57;12.20;;;4.10;;
77010;SDS011;65945;53.148;17.956;2022-12-29T13:42:28;16.60;;;5.20;;
77010;SDS011;65945;53.148;17.956;2022-12-29T13:47:34;12.30;;;5.70;;
77010;SDS011;65945;53.148;17.956;2022-12-29T13:50:12;12.70;;;5.60;;
77010;SDS011;65945;53.148;17.956;2022-12-29T13:56:16;16.40;;;7.10;;
77010;SDS011;65945;53.148;17.956;2022-12-29T14:04:22;16.70;;;5.70;;
77010;SDS011;65945;53.148;17.956;2022-12-29T14:09:47;11.40;;;5.00;;
77010;SDS011;65945;53.148;17.956;2022-12-29T14:15:06;14.50;;;5.10;;
77010;SDS011;65945;53.148;17.956;2022-12-29T14:17:45;15.70;;;6.10;;
77010;SDS011;65945;53.148;17.956;2022-12-29T14:20:29;19.90;;;7.70;;
77010;SDS011;65945;53.148;17.956;2022-12-29T14:23:17;15.50;;;6.10;;
77010;SDS011;65945;53.148;17.956;2022-12-29T14:28:38;15.40;;;6.50;;
77010;SDS011;65945;53.148;17.956;2022-12-29T14:36:35;21.20;;;9.10;;
77010;SDS011;65945;53.148;17.956;2022-12-29T14:39:04;17.60;;;8.50;;
77010;SDS011;65945;53.148;17.956;2022-12-29T14:42:03;13.40;;;7.70;;
77010;SDS011;65945;53.148;17.956;2022-12-29T14:44:32;19.90;;;8.50;;
77010;SDS011;65945;53.148;17.956;2022-12-29T14:47:00;17.90;;;9.20;;
77010;SDS011;65945;53.148;17.956;2022-12-29T14:49:39;21.90;;;9.50;;
77010;SDS011;65945;53.148;17.956;2022-12-29T14:52:17;20.50;;;9.50;;
77010;SDS011;65945;53.148;17.956;2022-12-29T14:54:48;21.00;;;9.80;;
77010;SDS011;65945;53.148;17.956;2022-12-29T14:57:27;20.20;;;8.60;;
77010;SDS011;65945;53.148;17.956;2022-12-29T15:00:00;16.60;;;7.40;;
77010;SDS011;65945;53.148;17.956;2022-12-29T15:02:36;16.20;;;8.60;;
77010;SDS011;65945;53.148;17.956;2022-12-29T15:05:19;15.50;;;8.10;;
77010;SDS011;65945;53.148;17.956;2022-12-29T15:07:53;14.30;;;7.60;;
77010;SDS011;65945;53.148;17.956;2022-12-29T15:10:22;14.30;;;7.70;;
77010;SDS011;65945;53.148;17.956;2022-12-29T15:12:53;17.10;;;8.00;;
77010;SDS011;65945;53.148;17.956;2022-12-29T15:15:23;25.20;;;10.80;;
77010;SDS011;65945;53.148;17.956;2022-12-29T15:17:53;24.70;;;10.60;;
77010;SDS011;65945;53.148;17.956;2022-12-29T15:20:22;18.90;;;8.50;;
77010;SDS011;65945;53.148;17.956;2022-12-29T15:22:54;20.20;;;7.10;;
77010;SDS011;65945;53.148;17.956;2022-12-29T15:25:22;19.00;;;8.30;;
77010;SDS011;65945;53.148;17.956;2022-12-29T15:28:00;28.10;;;11.70;;
77010;SDS011;65945;53.148;17.956;2022-12-29T15:30:29;26.40;;;10.30;;
77010;SDS011;65945;53.148;17.956;2022-12-29T15:32:55;19.10;;;7.30;;
77010;SDS011;65945;53.148;17.956;2022-12-29T15:35:27;23.90;;;9.70;;
77010;SDS011;65945;53.148;17.956;2022-12-29T15:37:59;21.70;;;8.60;;
77010;SDS011;65945;53.148;17.956;2022-12-29T15:40:30;25.20;;;9.60;;
77010;SDS011;65945;53.148;17.956;2022-12-29T15:45:46;20.90;;;7.40;;
77010;SDS011;65945;53.148;17.956;2022-12-29T15:48:16;20.10;;;7.50;;
77010;SDS011;65945;53.148;17.956;2022-12-29T15:50:47;14.60;;;7.00;;
77010;SDS011;65945;53.148;17.956;2022-12-29T15:53:19;13.80;;;6.50;;
77010;SDS011;65945;53.148;17.956;2022-12-29T15:55:55;11.70;;;6.00;;
77010;SDS011;65945;53.148;17.956;2022-12-29T15:58:26;12.60;;;6.50;;
77010;SDS011;65945;53.148;17.956;2022-12-29T16:00:56;17.50;;;7.60;;
77010;SDS011;65945;53.148;17.956;2022-12-29T16:03:28;13.20;;;5.60;;
77010;SDS011;65945;53.148;17.956;2022-12-29T16:06:09;18.60;;;6.40;;
77010;SDS011;65945;53.148;17.956;2022-12-29T16:11:42;14.20;;;5.90;;
77010;SDS011;65945;53.148;17.956;2022-12-29T16:14:16;12.00;;;5.70;;
77010;SDS011;65945;53.148;17.956;2022-12-29T16:16:47;16.50;;;6.40;;
77010;SDS011;65945;53.148;17.956;2022-12-29T16:19:21;16.40;;;7.30;;
77010;SDS011;65945;53.148;17.956;2022-12-29T16:21:53;19.10;;;7.80;;
77010;SDS011;65945;53.148;17.956;2022-12-29T16:24:21;27.70;;;10.50;;
77010;SDS011;65945;53.148;17.956;2022-12-29T16:27:01;28.60;;;10.20;;
77010;SDS011;65945;53.148;17.956;2022-12-29T16:29:33;20.40;;;8.40;;
77010;SDS011;65945;53.148;17.956;2022-12-29T16:32:01;23.60;;;10.60;;
77010;SDS011;65945;53.148;17.956;2022-12-29T16:34:33;23.70;;;10.30;;
77010;SDS011;65945;53.148;17.956;2022-12-29T16:39:56;20.50;;;8.50;;
77010;SDS011;65945;53.148;17.956;2022-12-29T16:42:49;22.70;;;8.00;;
77010;SDS011;65945;53.148;17.956;2022-12-29T16:50:37;26.00;;;8.80;;
77010;SDS011;65945;53.148;17.956;2022-12-29T16:53:06;21.10;;;8.90;;
77010;SDS011;65945;53.148;17.956;2022-12-29T16:55:46;22.60;;;8.60;;
77010;SDS011;65945;53.148;17.956;2022-12-29T16:58:16;28.60;;;9.80;;
77010;SDS011;65945;53.148;17.956;2022-12-29T17:00:46;24.10;;;9.40;;
77010;SDS011;65945;53.148;17.956;2022-12-29T17:03:13;25.30;;;12.00;;
77010;SDS011;65945;53.148;17.956;2022-12-29T17:05:41;22.70;;;10.70;;
77010;SDS011;65945;53.148;17.956;2022-12-29T17:08:18;21.40;;;9.10;;
77010;SDS011;65945;53.148;17.956;2022-12-29T17:10:54;20.50;;;7.10;;
77010;SDS011;65945;53.148;17.956;2022-12-29T17:13:41;23.80;;;8.20;;
77010;SDS011;65945;53.148;17.956;2022-12-29T17:16:09;20.50;;;8.80;;
77010;SDS011;65945;53.148;17.956;2022-12-29T17:18:36;20.50;;;7.80;;